.
WxDataArchive / Data Records for 2006-02-09
2006-02-08 February 2006 2006-02-10

Data Records for Thursday, 09 February 2006

Time	Temp	Chill	HIndex	Humid	Dewpt	 Wind 	HiWind	WindDir	Rain 	Barom 
-----	----	-----	------	-----	-----	------	------	-------	-----	----- 
00:00	19.1	19.1	19.1	77	13.1	0	1	22	0.00	30.226 
00:05	18.9	18.9	18.9	77	12.9	0	2	292	0.00	30.226 
00:10	18.9	18.9	18.9	78	13.2	0	1	292	0.00	30.226 
00:15	18.8	18.8	18.8	78	13.1	0	0	---	0.00	30.227 
00:20	18.6	18.6	18.6	78	12.9	0	0	---	0.00	30.227 
00:25	18.6	18.6	18.6	79	13.2	0	1	292	0.00	30.227 
00:30	18.4	18.4	18.4	79	13.0	0	1	292	0.00	30.231 
00:35	18.3	18.3	18.3	79	12.9	0	1	292	0.00	30.231 
00:40	18.1	18.1	18.1	79	12.7	0	0	---	0.00	30.231 
00:45	18.1	18.1	18.1	80	13.0	0	0	---	0.00	30.233 
00:50	18.0	18.0	18.0	80	12.9	0	0	---	0.00	30.233 
00:55	17.8	17.8	17.8	81	13.0	0	0	---	0.00	30.233 
01:00	17.7	17.7	17.7	81	12.9	0	0	---	0.00	30.236 
01:05	17.7	17.7	17.7	81	12.9	0	0	---	0.00	30.236 
01:10	17.5	17.5	17.5	81	12.7	0	0	---	0.00	30.236 
01:15	17.5	17.5	17.5	81	12.7	0	1	292	0.00	30.236 
01:20	17.3	17.3	17.3	81	12.5	0	1	292	0.00	30.236 
01:25	17.2	17.2	17.2	82	12.7	0	0	---	0.00	30.236 
01:30	17.0	17.0	17.0	82	12.5	0	0	---	0.00	30.232 
01:35	16.9	16.9	16.9	82	12.4	0	0	---	0.00	30.232 
01:40	16.7	16.7	16.7	82	12.2	0	0	---	0.00	30.232 
01:45	16.5	16.5	16.5	83	12.3	0	1	292	0.00	30.232 
01:50	16.5	16.5	16.5	83	12.3	0	0	---	0.00	30.232 
01:55	16.5	16.5	16.5	84	12.5	0	0	---	0.00	30.232 
02:00	16.5	16.5	16.5	84	12.5	0	0	---	0.00	30.234 
02:05	16.5	16.5	16.5	84	12.5	0	0	---	0.00	30.234 
02:10	16.4	16.4	16.4	84	12.4	0	0	---	0.00	30.234 
02:15	16.2	16.2	16.2	84	12.2	0	0	---	0.00	30.234 
02:20	16.1	16.1	16.1	84	12.1	0	0	---	0.00	30.234 
02:25	15.9	15.9	15.9	84	11.9	0	0	---	0.00	30.234 
02:30	15.9	15.9	15.9	84	11.9	0	1	292	0.00	30.236 
02:35	15.9	15.9	15.9	85	12.2	0	0	---	0.00	30.236 
02:40	15.9	15.9	15.9	85	12.2	0	1	292	0.00	30.236 
02:45	15.9	15.9	15.9	85	12.2	0	0	---	0.00	30.239 
02:50	15.9	15.9	15.9	85	12.2	0	1	292	0.00	30.239 
02:55	15.9	15.9	15.9	85	12.2	0	1	292	0.00	30.239 
03:00	15.7	15.7	15.7	85	12.0	0	1	292	0.00	30.242 
03:05	15.7	15.7	15.7	84	11.7	0	0	---	0.00	30.242 
03:10	15.6	15.6	15.6	84	11.6	0	1	292	0.00	30.242 
03:15	15.4	15.4	15.4	84	11.4	0	1	292	0.00	30.243 
03:20	15.2	15.2	15.2	84	11.3	0	0	---	0.00	30.243 
03:25	15.2	15.2	15.2	84	11.3	0	0	---	0.00	30.243 
03:30	15.1	15.1	15.1	84	11.2	0	0	---	0.00	30.239 
03:35	14.9	14.9	14.9	84	11.0	0	0	---	0.00	30.239 
03:40	14.8	14.8	14.8	84	10.9	0	0	---	0.00	30.239 
03:45	14.6	14.6	14.6	84	10.7	0	0	---	0.00	30.239 
03:50	14.4	14.4	14.4	84	10.5	0	0	---	0.00	30.239 
03:55	14.3	14.3	14.3	85	10.6	0	0	---	0.00	30.239 
04:00	14.1	14.1	14.1	85	10.4	0	0	---	0.00	30.239 
04:05	14.1	14.1	14.1	85	10.4	0	0	---	0.00	30.239 
04:10	14.1	14.1	14.1	85	10.4	0	0	---	0.00	30.239 
04:15	14.0	14.0	14.0	85	10.3	0	1	292	0.00	30.236 
04:20	14.1	14.1	14.1	85	10.4	0	1	292	0.00	30.236 
04:25	14.1	14.1	14.1	86	10.7	0	1	292	0.00	30.236 
04:30	14.1	14.1	14.1	85	10.4	0	0	---	0.00	30.229 
04:35	14.1	14.1	14.1	85	10.4	0	0	---	0.00	30.229 
04:40	14.1	14.1	14.1	85	10.4	0	0	---	0.00	30.229 
04:45	14.1	14.1	14.1	85	10.4	0	1	292	0.00	30.239 
04:50	14.3	14.3	14.3	85	10.6	0	1	292	0.00	30.239 
04:55	14.3	14.3	14.3	85	10.6	0	1	292	0.00	30.239 
05:00	14.4	14.4	14.4	84	10.5	0	1	292	0.00	30.242 
05:05	14.6	14.6	14.6	84	10.7	0	1	292	0.00	30.242 
05:10	14.6	14.6	14.6	84	10.7	0	1	292	0.00	30.242 
05:15	14.6	14.6	14.6	83	10.4	0	1	292	0.00	30.246 
05:20	14.6	14.6	14.6	83	10.4	0	1	292	0.00	30.246 
05:25	14.6	14.6	14.6	83	10.4	0	1	292	0.00	30.246 
05:30	14.6	14.6	14.6	82	10.1	0	1	292	0.00	30.248 
05:35	14.6	14.6	14.6	83	10.4	0	1	292	0.00	30.248 
05:40	14.6	14.6	14.6	83	10.4	0	1	292	0.00	30.248 
05:45	14.6	14.6	14.6	82	10.1	0	1	270	0.00	30.245 
05:50	14.6	14.6	14.6	82	10.1	0	2	270	0.00	30.245 
05:55	14.8	14.8	14.8	82	10.3	0	1	270	0.00	30.245 
06:00	14.8	14.8	14.8	82	10.3	0	1	270	0.00	30.242 
06:05	14.8	14.8	14.8	82	10.3	0	2	270	0.00	30.242 
06:10	14.8	14.8	14.8	82	10.3	0	1	270	0.00	30.242 
06:15	14.8	14.8	14.8	82	10.3	0	1	270	0.00	30.244 
06:20	14.9	14.9	14.9	82	10.4	0	2	270	0.00	30.244 
06:25	15.1	15.1	15.1	82	10.6	1	2	270	0.00	30.244 
06:30	15.1	15.1	15.1	81	10.3	0	2	248	0.00	30.241 
06:35	15.2	15.2	15.2	81	10.4	0	1	248	0.00	30.241 
06:40	15.2	15.2	15.2	81	10.4	0	2	248	0.00	30.241 
06:45	15.2	15.2	15.2	81	10.4	0	1	248	0.00	30.232 
06:50	15.2	15.2	15.2	81	10.4	0	1	248	0.00	30.232 
06:55	15.2	15.2	15.2	81	10.4	0	1	248	0.00	30.232 
07:00	15.4	15.4	15.4	81	10.6	1	3	248	0.00	30.232 
07:05	15.6	15.6	15.6	80	10.6	0	2	248	0.00	30.232 
07:10	15.6	15.6	15.6	80	10.6	0	2	248	0.00	30.232 
07:15	15.6	15.6	15.6	80	10.6	0	2	248	0.00	30.237 
07:20	15.4	15.4	15.4	80	10.4	0	1	248	0.00	30.237 
07:25	15.4	15.4	15.4	80	10.4	0	2	248	0.00	30.237 
07:30	15.4	15.4	15.4	80	10.4	1	2	248	0.00	30.244 
07:35	15.4	15.4	15.4	80	10.4	0	2	248	0.00	30.244 
07:40	15.4	15.4	15.4	80	10.4	0	1	248	0.00	30.244 
07:45	15.6	15.6	15.6	79	10.3	0	2	248	0.00	30.252 
07:50	15.7	15.7	15.7	79	10.4	1	3	248	0.00	30.252 
07:55	16.1	16.1	16.1	79	10.8	1	3	248	0.00	30.252 
08:00	16.2	16.2	16.2	79	10.9	1	2	248	0.00	30.257 
08:05	16.4	16.4	16.4	78	10.8	2	3	248	0.00	30.257 
08:10	16.5	16.5	16.5	78	10.9	1	3	248	0.00	30.257 
08:15	16.9	16.9	16.9	78	11.3	2	4	248	0.00	30.256 
08:20	17.0	17.0	17.0	77	11.1	1	4	248	0.00	30.256 
08:25	17.3	17.3	17.3	77	11.3	1	3	248	0.00	30.256 
08:30	17.8	17.8	17.8	76	11.5	2	6	248	0.00	30.258 
08:35	18.1	18.1	18.1	76	11.8	2	5	248	0.00	30.258 
08:40	18.8	18.8	18.8	75	12.2	2	5	248	0.00	30.258 
08:45	19.2	19.2	19.2	74	12.3	1	4	248	0.00	30.261 
08:50	19.7	19.7	19.7	74	12.8	2	5	248	0.00	30.261 
08:55	20.2	20.2	20.2	73	13.0	1	4	248	0.00	30.261 
09:00	20.8	20.8	20.8	73	13.5	2	4	248	0.00	30.257 
09:05	21.4	21.4	21.4	73	14.1	2	5	248	0.00	30.257 
09:10	21.9	21.9	21.9	72	14.3	1	5	248	0.00	30.257 
09:15	22.5	22.5	22.5	71	14.5	2	5	248	0.00	30.256 
09:20	23.0	23.0	23.0	71	15.0	2	5	248	0.00	30.256 
09:25	23.5	23.5	23.5	72	15.8	2	4	248	0.00	30.256 
09:30	23.9	23.9	23.9	72	16.2	3	7	248	0.00	30.261 
09:35	24.2	24.2	24.2	70	15.9	2	6	270	0.00	30.261 
09:40	24.7	24.7	24.7	71	16.7	2	4	270	0.00	30.261 
09:45	25.0	25.0	25.0	70	16.6	2	5	270	0.00	30.258 
09:50	25.1	25.1	25.1	69	16.4	2	5	270	0.00	30.258 
09:55	25.4	25.4	25.4	69	16.7	2	4	248	0.00	30.258 
10:00	25.6	25.6	25.6	69	16.9	2	5	270	0.00	30.255 
10:05	25.7	25.7	25.7	68	16.6	3	9	270	0.00	30.255 
10:10	26.0	26.0	26.0	68	16.9	2	5	248	0.00	30.255 
10:15	26.1	26.1	26.1	68	17.0	2	6	270	0.00	30.266 
10:20	26.4	26.4	26.4	69	17.6	2	5	248	0.00	30.266 
10:25	26.6	26.6	26.6	66	16.8	3	7	270	0.00	30.266 
10:30	27.0	27.0	27.0	66	17.2	2	5	270	0.00	30.265 
10:35	27.3	27.3	27.3	66	17.5	2	5	292	0.00	30.265 
10:40	27.5	27.5	27.5	65	17.3	3	6	270	0.00	30.265 
10:45	27.8	27.8	27.8	65	17.6	3	6	270	0.00	30.261 
10:50	27.9	27.9	27.9	62	16.6	3	6	270	0.00	30.261 
10:55	28.1	28.1	28.1	63	17.2	2	5	270	0.00	30.261 
11:00	28.4	28.4	28.4	64	17.8	2	4	270	0.00	30.255 
11:05	28.4	28.4	28.4	62	17.1	3	7	270	0.00	30.255 
11:10	28.5	28.5	28.5	62	17.2	2	5	0	0.00	30.255 
11:15	28.7	28.7	28.7	62	17.4	3	5	270	0.00	30.254 
11:20	28.7	28.7	28.7	61	17.0	3	6	270	0.00	30.254 
11:25	28.4	28.4	28.4	59	15.9	3	6	270	0.00	30.254 
11:30	28.4	28.4	28.4	62	17.1	3	7	270	0.00	30.259 
11:35	28.7	28.7	28.7	60	16.6	3	7	270	0.00	30.259 
11:40	28.8	28.8	28.8	59	16.3	3	7	270	0.00	30.259 
11:45	29.3	29.3	29.3	57	16.0	3	6	270	0.00	30.252 
11:50	29.4	25.1	29.4	50	13.1	4	9	270	0.00	30.252 
11:55	29.5	29.5	29.5	52	14.1	3	11	270	0.00	30.252 
12:00	29.8	25.5	29.8	48	12.5	4	13	270	0.00	30.250 
12:05	29.8	29.8	29.8	48	12.5	3	9	270	0.00	30.250 
12:10	30.0	25.8	30.0	47	12.2	4	11	270	0.00	30.250 
12:15	30.4	30.4	30.4	48	13.1	3	7	248	0.00	30.250 
12:20	30.4	30.4	30.4	44	11.1	3	7	270	0.00	30.250 
12:25	30.7	30.7	30.7	45	11.9	3	10	270	0.00	30.250 
12:30	31.0	31.0	31.0	44	11.7	3	7	270	0.00	30.235 
12:35	31.2	31.2	31.2	46	12.9	3	7	270	0.00	30.235 
12:40	31.0	26.9	31.0	41	10.1	4	8	270	0.00	30.235 
12:45	31.3	31.3	31.3	47	13.4	3	13	270	0.00	30.227 
12:50	31.3	27.3	31.3	44	11.9	4	15	270	0.00	30.227 
12:55	31.3	31.3	31.3	41	10.4	3	6	270	0.00	30.227 
13:00	31.3	27.3	31.3	41	10.4	4	9	270	0.00	30.218 
13:05	31.8	31.8	31.8	44	12.4	2	5	270	0.00	30.218 
13:10	31.9	31.9	31.9	42	11.4	3	7	270	0.00	30.218 
13:15	31.8	27.8	31.8	41	10.8	4	9	270	0.00	30.209 
13:20	31.9	31.9	31.9	40	10.4	3	7	270	0.00	30.209 
13:25	31.9	28.0	31.9	43	12.0	4	10	270	0.00	30.209 
13:30	32.4	32.4	32.4	43	12.4	3	10	270	0.00	30.206 
13:35	32.1	27.2	32.1	39	10.0	5	12	270	0.00	30.206 
13:40	32.2	28.3	32.2	43	12.2	4	9	270	0.00	30.206 
13:45	32.2	28.3	32.2	44	12.8	4	11	270	0.00	30.204 
13:50	31.9	27.0	31.9	41	10.9	5	14	270	0.00	30.204 
13:55	31.9	27.0	31.9	45	13.0	5	12	270	0.00	30.204 
14:00	31.8	26.0	31.8	40	10.3	6	14	270	0.00	30.198 
14:05	31.9	28.0	31.9	43	12.0	4	10	270	0.00	30.198 
14:10	32.2	28.3	32.2	39	10.1	4	10	270	0.00	30.198 
14:15	32.4	32.4	32.4	41	11.4	3	7	270	0.00	30.199 
14:20	32.7	28.9	32.7	37	9.3	4	11	270	0.00	30.199 
14:25	32.9	32.9	32.9	39	10.7	3	10	270	0.00	30.199 
14:30	32.8	29.0	32.8	39	10.6	4	12	270	0.00	30.190 
14:35	32.9	29.1	32.9	41	11.8	4	14	270	0.00	30.190 
14:40	32.9	29.1	32.9	40	11.3	4	12	270	0.00	30.190 
14:45	33.1	28.4	33.1	39	10.9	5	10	270	0.00	30.186 
14:50	32.9	28.1	32.9	42	12.4	5	13	270	0.00	30.186 
14:55	32.9	28.1	32.9	38	10.1	5	12	270	0.00	30.186 
15:00	32.9	29.1	32.9	38	10.1	4	12	270	0.00	30.183 
15:05	32.7	27.9	32.7	37	9.3	5	12	270	0.00	30.183 
15:10	32.8	29.0	32.8	38	10.0	4	12	270	0.00	30.183 
15:15	32.8	32.8	32.8	37	9.4	3	7	270	0.00	30.183 
15:20	32.5	32.5	32.5	37	9.2	3	6	270	0.00	30.183 
15:25	32.4	28.5	32.4	39	10.2	4	11	270	0.00	30.183 
15:30	32.4	32.4	32.4	39	10.2	3	12	270	0.00	30.186 
15:35	32.5	32.5	32.5	40	10.9	3	11	270	0.00	30.186 
15:40	32.8	32.8	32.8	40	11.2	3	6	270	0.00	30.186 
15:45	32.8	29.0	32.8	37	9.4	4	11	292	0.00	30.188 
15:50	32.9	29.1	32.9	39	10.7	4	10	270	0.00	30.188 
15:55	32.8	28.0	32.8	39	10.6	5	13	270	0.00	30.188 
16:00	32.5	32.5	32.5	40	10.9	3	10	270	0.00	30.186 
16:05	32.2	28.3	32.2	40	10.6	4	11	270	0.00	30.186 
16:10	31.8	26.0	31.8	38	9.1	6	12	270	0.00	30.186 
16:15	31.6	26.6	31.6	39	9.5	5	12	270	0.00	30.185 
16:20	31.5	27.5	31.5	40	10.0	4	10	270	0.00	30.185 
16:25	31.5	31.5	31.5	43	11.6	3	9	270	0.00	30.185 
16:30	31.3	27.3	31.3	40	9.8	4	10	270	0.00	30.177 
16:35	31.3	27.3	31.3	42	10.9	4	11	270	0.00	30.177 
16:40	31.2	31.2	31.2	43	11.3	2	5	270	0.00	30.177 
16:45	31.2	31.2	31.2	41	10.3	3	10	248	0.00	30.172 
16:50	31.0	31.0	31.0	41	10.1	3	7	270	0.00	30.172 
16:55	31.0	31.0	31.0	42	10.6	2	6	270	0.00	30.172 
17:00	31.0	31.0	31.0	41	10.1	3	6	270	0.00	30.173 
17:05	31.0	31.0	31.0	42	10.6	3	7	248	0.00	30.173 
17:10	31.0	31.0	31.0	42	10.6	3	9	248	0.00	30.173 
17:15	30.9	26.8	30.9	42	10.5	4	10	270	0.00	30.169 
17:20	30.9	26.8	30.9	43	11.1	4	11	248	0.00	30.169 
17:25	30.7	26.6	30.7	43	10.9	4	7	270	0.00	30.169 
17:30	30.6	30.6	30.6	44	11.3	3	7	270	0.00	30.170 
17:35	30.4	30.4	30.4	45	11.6	3	9	248	0.00	30.170 
17:40	30.3	30.3	30.3	44	11.0	3	6	270	0.00	30.170 
17:45	30.3	26.1	30.3	44	11.0	4	10	248	0.00	30.171 
17:50	30.1	30.1	30.1	46	11.8	3	9	248	0.00	30.171 
17:55	30.0	25.8	30.0	44	10.8	4	9	248	0.00	30.171 
18:00	29.8	29.8	29.8	44	10.6	3	7	248	0.00	30.163 
18:05	29.7	29.7	29.7	44	10.5	3	9	270	0.00	30.163 
18:10	29.7	29.7	29.7	44	10.5	3	10	248	0.00	30.163 
18:15	29.5	29.5	29.5	45	10.8	2	9	270	0.00	30.162 
18:20	29.4	29.4	29.4	45	10.7	2	4	248	0.00	30.162 
18:25	29.4	29.4	29.4	46	11.2	1	4	248	0.00	30.162 
18:30	29.3	29.3	29.3	46	11.1	2	5	248	0.00	30.159 
18:35	29.3	29.3	29.3	47	11.6	2	7	248	0.00	30.159 
18:40	29.3	29.3	29.3	47	11.6	3	6	248	0.00	30.159 
18:45	29.4	29.4	29.4	48	12.2	2	6	248	0.00	30.160 
18:50	29.3	29.3	29.3	47	11.6	2	5	248	0.00	30.160 
18:55	29.3	29.3	29.3	48	12.1	2	5	248	0.00	30.160 
19:00	29.1	29.1	29.1	48	11.9	2	5	248	0.00	30.160 
19:05	29.1	29.1	29.1	48	11.9	2	6	248	0.00	30.160 
19:10	29.1	29.1	29.1	48	11.9	3	6	248	0.00	30.160 
19:15	29.1	29.1	29.1	49	12.4	1	3	248	0.00	30.161 
19:20	29.1	29.1	29.1	49	12.4	2	4	248	0.00	30.161 
19:25	29.0	29.0	29.0	50	12.7	2	6	248	0.00	30.161 
19:30	29.0	29.0	29.0	49	12.3	2	7	248	0.00	30.167 
19:35	29.0	29.0	29.0	50	12.7	2	5	248	0.00	30.167 
19:40	29.0	29.0	29.0	50	12.7	2	4	248	0.00	30.167 
19:45	29.0	29.0	29.0	51	13.2	2	4	248	0.00	30.171 
19:50	28.8	28.8	28.8	51	13.0	2	4	248	0.00	30.171 
19:55	28.8	28.8	28.8	52	13.4	1	5	248	0.00	30.171 
20:00	28.8	28.8	28.8	52	13.4	1	4	248	0.00	30.172 
20:05	28.7	28.7	28.7	53	13.8	1	2	248	0.00	30.172 
20:10	28.7	28.7	28.7	53	13.8	2	5	248	0.00	30.172 
20:15	28.8	28.8	28.8	54	14.3	2	6	248	0.00	30.167 
20:20	28.8	28.8	28.8	54	14.3	2	4	248	0.00	30.167 
20:25	28.7	28.7	28.7	54	14.2	2	4	248	0.00	30.167 
20:30	28.7	28.7	28.7	54	14.2	2	4	248	0.00	30.168 
20:35	28.7	28.7	28.7	55	14.6	2	5	248	0.00	30.168 
20:40	28.7	28.7	28.7	55	14.6	2	4	248	0.00	30.168 
20:45	28.7	28.7	28.7	55	14.6	2	5	225	0.00	30.154 
20:50	28.7	28.7	28.7	56	15.0	3	7	248	0.00	30.154 
20:55	28.8	28.8	28.8	57	15.5	3	7	248	0.00	30.154 
21:00	28.8	28.8	28.8	58	15.9	2	6	248	0.00	30.150 
21:05	28.7	28.7	28.7	58	15.8	2	6	248	0.00	30.150 
21:10	28.7	28.7	28.7	59	16.2	2	5	248	0.00	30.150 
21:15	28.5	28.5	28.5	60	16.4	2	4	248	0.00	30.135 
21:20	28.4	28.4	28.4	61	16.7	2	5	248	0.00	30.135 
21:25	28.4	28.4	28.4	61	16.7	2	4	248	0.00	30.135 
21:30	28.4	28.4	28.4	61	16.7	2	5	248	0.00	30.134 
21:35	28.2	28.2	28.2	62	16.9	2	5	248	0.00	30.134 
21:40	28.2	28.2	28.2	62	16.9	2	4	248	0.00	30.134 
21:45	28.2	28.2	28.2	63	17.2	2	6	270	0.00	30.137 
21:50	28.1	28.1	28.1	64	17.5	2	6	248	0.00	30.137 
21:55	28.1	28.1	28.1	65	17.9	2	5	248	0.00	30.137 
22:00	28.1	28.1	28.1	66	18.2	2	5	248	0.00	30.141 
22:05	28.1	28.1	28.1	67	18.6	2	6	248	0.00	30.141 
22:10	28.1	28.1	28.1	67	18.6	2	5	248	0.00	30.141 
22:15	28.1	28.1	28.1	68	18.9	2	5	248	0.00	30.136 
22:20	28.1	28.1	28.1	68	18.9	2	6	225	0.00	30.136 
22:25	28.1	28.1	28.1	68	18.9	1	6	248	0.00	30.136 
22:30	28.1	28.1	28.1	68	18.9	1	3	248	0.00	30.117 
22:35	27.9	27.9	27.9	69	19.1	1	4	248	0.00	30.117 
22:40	28.1	28.1	28.1	69	19.3	1	4	248	0.00	30.117 
22:45	27.9	27.9	27.9	69	19.1	1	3	248	0.00	30.124 
22:50	27.9	27.9	27.9	69	19.1	2	4	248	0.00	30.124 
22:55	27.9	27.9	27.9	69	19.1	2	6	248	0.00	30.124 
23:00	28.1	28.1	28.1	69	19.3	1	3	248	0.00	30.122 
23:05	28.1	28.1	28.1	69	19.3	2	4	248	0.00	30.122 
23:10	28.1	28.1	28.1	69	19.3	1	5	248	0.00	30.122 
23:15	28.1	28.1	28.1	69	19.3	1	4	248	0.00	30.111 
23:20	27.9	27.9	27.9	69	19.1	1	3	248	0.00	30.111 
23:25	27.9	27.9	27.9	69	19.1	1	3	248	0.00	30.111 
23:30	27.9	27.9	27.9	69	19.1	1	3	248	0.00	30.106 
23:35	27.9	27.9	27.9	70	19.4	1	4	248	0.00	30.106 
23:40	27.9	27.9	27.9	70	19.4	1	3	248	0.00	30.106 
23:45	27.9	27.9	27.9	69	19.1	1	3	248	0.00	30.099 
23:50	27.9	27.9	27.9	70	19.4	1	2	248	0.00	30.099 
23:55	27.9	27.9	27.9	70	19.4	1	2	248	0.00	30.099 

CoCoRaHS
IN-AL-39
A2 Web Hosting
Creative Commons License
GoDaddy
Look for:

loaded 2017-10-20 19:52:58 • last modified 2010-11-18 10:43:29
Privacy PolicyDisclaimer
• wx.awcolley.com is powered by PmWiki v.2002016 •
• all content (unless otherwise noted) © 2017 A W Colley